createdAt,value
2022-11-14T00:00:01.059Z,6.95
2022-11-14T00:01:27.042Z,6.79
2022-11-14T00:02:47.798Z,6.75
2022-11-14T00:04:08.222Z,6.48
2022-11-14T00:05:29.399Z,6.41
2022-11-14T00:06:50.035Z,6.45
2022-11-14T00:08:18.291Z,6.60
2022-11-14T00:09:42.574Z,6.50
2022-11-14T00:11:03.977Z,6.45
2022-11-14T00:12:25.251Z,6.46
2022-11-14T00:13:46.484Z,6.36
2022-11-14T00:15:07.542Z,6.29
2022-11-14T00:16:28.501Z,6.40
2022-11-14T00:17:49.205Z,6.61
2022-11-14T00:19:10.495Z,6.48
2022-11-14T00:20:32.361Z,6.30
2022-11-14T00:21:53.702Z,6.42
2022-11-14T00:23:14.399Z,6.38
2022-11-14T00:24:34.921Z,6.25
2022-11-14T00:25:56.122Z,6.33
2022-11-14T00:27:17.184Z,6.50
2022-11-14T00:28:37.907Z,6.53
2022-11-14T00:29:58.566Z,6.56
2022-11-14T00:31:19.006Z,6.41
2022-11-14T00:32:39.879Z,6.49
2022-11-14T00:34:00.774Z,6.74
2022-11-14T00:35:21.412Z,6.77
2022-11-14T00:36:41.974Z,6.83
2022-11-14T00:38:03.257Z,6.87
2022-11-14T00:39:24.718Z,6.94
2022-11-14T00:40:45.692Z,6.90
2022-11-14T00:42:07.007Z,7.10
2022-11-14T00:43:27.638Z,6.97
2022-11-14T00:44:49.072Z,7.04
2022-11-14T00:46:09.449Z,6.95
2022-11-14T00:47:29.942Z,7.02
2022-11-14T00:48:50.353Z,7.02
2022-11-14T00:50:11.866Z,7.00
2022-11-14T00:51:32.822Z,6.76
2022-11-14T00:52:53.600Z,6.56
2022-11-14T00:54:13.949Z,6.62
2022-11-14T00:55:35.331Z,6.45
2022-11-14T00:56:56.176Z,6.46
2022-11-14T00:58:17.366Z,6.52
2022-11-14T00:59:38.092Z,6.65
2022-11-14T01:00:59.834Z,6.36
2022-11-14T01:02:20.603Z,6.39
2022-11-14T01:03:41.706Z,6.41
2022-11-14T01:05:02.863Z,6.22
2022-11-14T01:06:24.343Z,6.30
2022-11-14T01:07:44.857Z,6.44
2022-11-14T01:09:05.752Z,6.21
2022-11-14T01:10:26.535Z,6.22
2022-11-14T01:11:47.867Z,6.31
2022-11-14T01:13:09.498Z,6.39
2022-11-14T01:14:30.523Z,6.31
2022-11-14T01:15:52.354Z,6.50
2022-11-14T01:17:12.805Z,6.41
2022-11-14T01:18:33.952Z,6.49
2022-11-14T01:19:54.967Z,6.57
2022-11-14T01:21:15.859Z,6.72
2022-11-14T01:22:36.906Z,6.67
2022-11-14T01:23:58.555Z,6.77
2022-11-14T01:25:18.969Z,6.65
2022-11-14T01:26:39.665Z,6.52
2022-11-14T01:28:01.188Z,6.59
2022-11-14T01:29:22.413Z,6.42
2022-11-14T01:30:43.744Z,6.17
2022-11-14T01:32:05.079Z,6.16
2022-11-14T01:33:25.940Z,6.26
2022-11-14T01:34:46.849Z,6.34
2022-11-14T01:36:08.862Z,6.43
2022-11-14T01:37:29.896Z,6.40
2022-11-14T01:38:54.212Z,6.39
2022-11-14T01:40:15.178Z,6.32
2022-11-14T01:41:35.860Z,6.32
2022-11-14T01:43:18.297Z,6.11
2022-11-14T01:44:46.106Z,6.40
2022-11-14T01:46:10.184Z,6.23
2022-11-14T01:47:33.218Z,6.17
2022-11-14T01:49:15.134Z,6.26
2022-11-14T01:50:36.421Z,6.31
2022-11-14T01:52:04.957Z,6.14
2022-11-14T01:53:25.699Z,5.88
2022-11-14T01:54:50.609Z,6.03
2022-11-14T01:56:15.376Z,6.13
2022-11-14T01:57:42.812Z,6.35
2022-11-14T01:59:08.314Z,6.07
2022-11-14T02:00:29.083Z,6.33
2022-11-14T02:01:52.502Z,6.26
2022-11-14T02:03:14.895Z,6.00
2022-11-14T02:04:39.704Z,5.86
2022-11-14T02:06:02.994Z,5.98
2022-11-14T02:07:27.394Z,6.09
2022-11-14T02:08:49.895Z,6.01
2022-11-14T02:10:18.175Z,5.97
2022-11-14T02:11:43.721Z,5.97
2022-11-14T02:13:04.655Z,6.10
2022-11-14T02:14:27.867Z,6.07
2022-11-14T02:15:48.468Z,6.03
2022-11-14T02:18:49.846Z,6.34
2022-11-14T02:20:10.867Z,6.19
2022-11-14T02:21:31.467Z,6.03
2022-11-14T02:22:52.191Z,6.02
2022-11-14T02:24:13.890Z,6.01
2022-11-14T02:25:35.126Z,6.21
2022-11-14T02:26:55.984Z,6.41
2022-11-14T02:28:17.376Z,6.43
2022-11-14T02:29:38.421Z,6.06
2022-11-14T02:30:59.335Z,5.95
2022-11-14T02:32:19.834Z,6.16
2022-11-14T02:33:42.003Z,6.21
2022-11-14T02:35:02.491Z,6.13
2022-11-14T02:36:23.106Z,6.20
2022-11-14T02:37:43.539Z,6.25
2022-11-14T02:39:04.751Z,6.34
2022-11-14T02:40:25.373Z,6.36
2022-11-14T02:41:46.667Z,6.42
2022-11-14T02:43:07.216Z,6.32
2022-11-14T02:44:28.305Z,6.29
2022-11-14T02:45:49.219Z,6.33
2022-11-14T02:47:10.538Z,6.51
2022-11-14T02:48:31.340Z,6.44
2022-11-14T02:49:52.595Z,6.17
2022-11-14T02:51:13.319Z,6.05
2022-11-14T02:52:33.840Z,6.06
2022-11-14T02:53:54.692Z,6.25
2022-11-14T02:55:16.061Z,6.38
2022-11-14T02:56:36.786Z,6.25
2022-11-14T02:57:57.686Z,6.32
2022-11-14T02:59:18.316Z,6.23
2022-11-14T03:00:59.277Z,6.15
2022-11-14T03:02:20.210Z,5.94
2022-11-14T03:03:41.453Z,5.90
2022-11-14T03:05:02.017Z,5.99
2022-11-14T03:06:23.421Z,6.04
2022-11-14T03:07:44.182Z,6.05
2022-11-14T03:09:05.162Z,6.29
2022-11-14T03:10:25.777Z,6.33
2022-11-14T03:11:46.877Z,6.34
2022-11-14T03:13:07.369Z,6.00
2022-11-14T03:14:31.469Z,5.71
2022-11-14T03:15:51.939Z,5.72
2022-11-14T03:17:13.266Z,5.71
2022-11-14T03:18:33.978Z,5.85
2022-11-14T03:19:55.113Z,5.92
2022-11-14T03:21:20.874Z,5.97
2022-11-14T03:22:42.007Z,6.11
2022-11-14T03:24:02.564Z,6.04
2022-11-14T03:25:23.929Z,5.93
2022-11-14T03:26:44.573Z,5.84
2022-11-14T03:28:05.999Z,6.00
2022-11-14T03:29:26.900Z,6.07
2022-11-14T03:30:48.197Z,6.15
2022-11-14T03:32:08.686Z,6.00
2022-11-14T03:33:29.992Z,6.25
2022-11-14T03:34:50.420Z,6.36
2022-11-14T03:36:11.743Z,6.11
2022-11-14T03:37:32.238Z,6.16
2022-11-14T03:38:52.724Z,6.38
2022-11-14T03:40:13.583Z,6.24
2022-11-14T03:41:34.712Z,6.40
2022-11-14T03:42:57.302Z,6.05
2022-11-14T03:44:17.952Z,5.99
2022-11-14T03:45:39.276Z,6.01
2022-11-14T03:47:00.154Z,5.87
2022-11-14T03:48:21.095Z,5.78
2022-11-14T03:49:41.750Z,5.96
2022-11-14T03:51:03.007Z,6.10
2022-11-14T03:52:23.435Z,6.00
2022-11-14T03:53:44.479Z,6.26
2022-11-14T03:55:05.777Z,6.13
2022-11-14T03:56:26.695Z,6.13
2022-11-14T03:57:47.352Z,6.35
2022-11-14T03:59:08.512Z,6.37
2022-11-14T04:00:29.550Z,6.49
2022-11-14T04:01:50.331Z,6.08
2022-11-14T04:03:10.922Z,5.85
2022-11-14T04:04:32.037Z,5.90
2022-11-14T04:05:52.912Z,6.08
2022-11-14T04:07:13.695Z,6.02
2022-11-14T04:08:34.370Z,6.24
2022-11-14T04:09:55.348Z,6.16
2022-11-14T04:11:16.079Z,6.21
2022-11-14T04:12:36.642Z,5.86
2022-11-14T04:13:57.481Z,5.88
2022-11-14T04:15:18.889Z,6.07
2022-11-14T04:16:39.872Z,6.18
2022-11-14T04:18:00.757Z,6.25
2022-11-14T04:19:21.459Z,6.35
2022-11-14T04:20:42.564Z,6.36
2022-11-14T04:22:03.472Z,6.26
2022-11-14T04:23:24.263Z,6.24
2022-11-14T04:24:45.338Z,6.01
2022-11-14T04:26:06.117Z,6.18
2022-11-14T04:27:27.125Z,6.03
2022-11-14T04:28:47.798Z,6.09
2022-11-14T04:30:11.907Z,6.20
2022-11-14T04:31:33.038Z,6.31
2022-11-14T04:32:54.399Z,6.10
2022-11-14T04:34:14.825Z,6.14
2022-11-14T04:35:35.368Z,6.09
2022-11-14T04:36:55.797Z,6.16
2022-11-14T04:38:17.199Z,5.81
2022-11-14T04:39:37.838Z,5.82
2022-11-14T04:40:58.395Z,5.92
2022-11-14T04:42:18.954Z,6.00
2022-11-14T04:43:40.158Z,5.83
2022-11-14T04:45:00.880Z,5.75
2022-11-14T04:46:21.394Z,5.90
2022-11-14T04:47:42.645Z,6.00
2022-11-14T04:49:03.616Z,6.13
2022-11-14T04:50:24.554Z,6.14
2022-11-14T04:51:45.017Z,6.29
2022-11-14T04:53:05.929Z,6.22
2022-11-14T04:54:27.220Z,6.12
2022-11-14T04:55:47.988Z,6.15
2022-11-14T04:57:08.483Z,6.31
2022-11-14T04:58:29.325Z,6.32
2022-11-14T04:59:50.543Z,6.16
2022-11-14T05:01:13.521Z,6.24
2022-11-14T05:02:34.264Z,6.27
2022-11-14T05:03:55.587Z,6.32
2022-11-14T05:05:16.643Z,6.31
2022-11-14T05:06:37.223Z,6.46
2022-11-14T05:07:59.146Z,6.31
2022-11-14T05:09:19.752Z,6.26
2022-11-14T05:10:45.242Z,6.16
2022-11-14T05:12:06.734Z,6.18
2022-11-14T05:13:27.659Z,6.16
2022-11-14T05:14:48.772Z,6.26
2022-11-14T05:16:09.648Z,6.20
2022-11-14T05:17:30.539Z,6.05
2022-11-14T05:18:53.967Z,6.21
2022-11-14T05:20:14.590Z,6.27
2022-11-14T05:21:35.450Z,6.06
2022-11-14T05:22:56.631Z,6.12
2022-11-14T05:24:17.150Z,6.21
2022-11-14T05:25:37.931Z,6.22
2022-11-14T05:26:59.179Z,6.23
2022-11-14T05:28:20.391Z,6.18
2022-11-14T05:29:41.211Z,5.68
2022-11-14T05:31:07.208Z,5.81
2022-11-14T05:32:28.053Z,5.74
2022-11-14T05:33:50.285Z,5.55
2022-11-14T05:35:11.692Z,5.53
2022-11-14T05:36:32.125Z,5.46
2022-11-14T05:37:56.115Z,5.34
2022-11-14T05:39:20.263Z,5.28
2022-11-14T05:40:40.965Z,5.16
2022-11-14T05:42:01.345Z,5.23
2022-11-14T05:43:21.835Z,5.31
2022-11-14T05:44:43.300Z,5.52
2022-11-14T05:46:06.655Z,5.60
2022-11-14T05:47:27.396Z,5.66
2022-11-14T05:48:47.909Z,5.85
2022-11-14T05:50:09.785Z,5.92
2022-11-14T05:51:30.365Z,6.08
2022-11-14T05:52:51.586Z,6.11
2022-11-14T05:54:12.098Z,6.05
2022-11-14T05:55:32.911Z,5.76
2022-11-14T05:56:53.465Z,5.76
2022-11-14T05:58:14.834Z,5.61
2022-11-14T05:59:35.487Z,5.79
2022-11-14T06:01:07.632Z,5.55
2022-11-14T06:02:28.500Z,5.57
2022-11-14T06:03:49.605Z,5.80
2022-11-14T06:05:10.323Z,5.98
2022-11-14T06:06:31.796Z,6.03
2022-11-14T06:07:57.310Z,6.00
2022-11-14T06:09:18.119Z,5.91
2022-11-14T06:10:38.707Z,5.97
2022-11-14T06:11:59.378Z,5.95
2022-11-14T06:13:20.042Z,6.08
2022-11-14T06:14:41.169Z,6.00
2022-11-14T06:16:03.941Z,5.92
2022-11-14T06:17:24.984Z,6.03
2022-11-14T06:18:46.423Z,5.98
2022-11-14T06:20:07.992Z,5.88
2022-11-14T06:21:28.832Z,5.89
2022-11-14T06:22:50.186Z,5.71
2022-11-14T06:24:10.719Z,5.71
2022-11-14T06:25:31.283Z,5.70
2022-11-14T06:26:51.914Z,5.81
2022-11-14T06:28:13.300Z,5.78
2022-11-14T06:29:35.674Z,5.77
2022-11-14T06:31:02.007Z,5.92
2022-11-14T06:32:22.901Z,6.05
2022-11-14T06:33:43.956Z,6.06
2022-11-14T06:35:04.924Z,6.15
2022-11-14T06:36:25.700Z,5.98
2022-11-14T06:37:46.537Z,5.97
2022-11-14T06:39:07.477Z,5.98
2022-11-14T06:40:28.341Z,5.52
2022-11-14T06:41:48.855Z,5.24
2022-11-14T06:43:09.652Z,5.14
2022-11-14T06:44:31.303Z,5.22
2022-11-14T06:45:54.938Z,5.45
2022-11-14T06:47:18.196Z,5.66
2022-11-14T06:48:39.608Z,5.63
2022-11-14T06:50:00.187Z,5.43
2022-11-14T06:51:21.001Z,5.53
2022-11-14T06:52:41.744Z,5.80
2022-11-14T06:54:02.349Z,5.94
2022-11-14T06:55:25.501Z,5.94
2022-11-14T06:56:46.530Z,6.02
2022-11-14T06:58:07.071Z,6.13
2022-11-14T06:59:27.956Z,5.85
2022-11-14T07:00:48.963Z,5.55
2022-11-14T07:02:21.470Z,5.38
2022-11-14T07:03:43.669Z,5.39
2022-11-14T07:05:04.939Z,5.37
2022-11-14T07:06:30.902Z,5.49
2022-11-14T07:07:51.447Z,5.75
2022-11-14T07:09:12.216Z,5.86
2022-11-14T07:10:32.966Z,5.94
2022-11-14T07:11:53.708Z,5.98
2022-11-14T07:13:14.143Z,5.59
2022-11-14T07:14:34.769Z,5.49
2022-11-14T07:15:56.142Z,5.40
2022-11-14T07:17:16.924Z,5.24
2022-11-14T07:18:37.757Z,5.37
2022-11-14T07:19:58.774Z,5.37
2022-11-14T07:21:19.683Z,5.38
2022-11-14T07:22:40.699Z,5.31
2022-11-14T07:24:06.758Z,5.41
2022-11-14T07:25:33.414Z,5.35
2022-11-14T07:26:54.210Z,5.49
2022-11-14T07:28:15.112Z,5.67
2022-11-14T07:29:35.848Z,5.72
2022-11-14T07:30:56.968Z,5.37
2022-11-14T07:32:20.814Z,5.33
2022-11-14T07:33:43.584Z,5.31
2022-11-14T07:35:04.300Z,5.61
2022-11-14T07:36:25.004Z,5.62
2022-11-14T07:37:46.044Z,5.75
2022-11-14T07:39:07.007Z,5.76
2022-11-14T07:40:27.735Z,5.65
2022-11-14T07:41:48.728Z,5.70
2022-11-14T07:43:09.452Z,5.91
2022-11-14T07:44:33.728Z,5.90
2022-11-14T07:45:54.720Z,6.07
2022-11-14T07:47:17.640Z,6.15
2022-11-14T07:48:38.655Z,6.11
2022-11-14T07:49:59.483Z,5.92
2022-11-14T07:51:21.002Z,6.10
2022-11-14T07:52:42.713Z,6.14
2022-11-14T07:54:03.551Z,6.06
2022-11-14T07:55:24.693Z,5.98
2022-11-14T07:56:45.856Z,5.97
2022-11-14T07:58:06.459Z,5.93
2022-11-14T07:59:27.215Z,5.86
2022-11-14T08:00:47.667Z,5.81
2022-11-14T08:02:13.888Z,6.07
2022-11-14T08:03:34.888Z,6.06
2022-11-14T08:04:55.513Z,6.15
2022-11-14T08:06:16.820Z,6.21
2022-11-14T08:07:37.583Z,6.25
2022-11-14T08:08:58.575Z,6.15
2022-11-14T08:10:19.816Z,6.09
2022-11-14T08:11:52.551Z,5.81
2022-11-14T08:14:53.948Z,5.77
2022-11-14T08:16:14.594Z,5.86
2022-11-14T08:17:36.012Z,5.90
2022-11-14T08:18:56.293Z,5.73
2022-11-14T08:20:17.194Z,5.61
2022-11-14T08:21:43.776Z,5.61
2022-11-14T08:23:07.077Z,5.91
2022-11-14T08:24:27.604Z,5.82
2022-11-14T08:25:48.199Z,5.92
2022-11-14T08:27:08.633Z,5.90
2022-11-14T08:28:29.854Z,5.74
2022-11-14T08:29:53.592Z,5.85
2022-11-14T08:31:14.391Z,5.85
2022-11-14T08:32:35.313Z,5.88
2022-11-14T08:33:57.184Z,5.75
2022-11-14T08:35:18.444Z,5.74
2022-11-14T08:36:38.896Z,5.96
2022-11-14T08:38:01.925Z,6.03
2022-11-14T08:39:22.738Z,6.35
2022-11-14T08:40:43.937Z,6.50
2022-11-14T08:42:04.618Z,6.72
2022-11-14T08:43:25.326Z,6.69
2022-11-14T08:44:51.660Z,7.00
2022-11-14T08:46:16.609Z,6.94
2022-11-14T08:47:37.578Z,6.81
2022-11-14T08:48:58.120Z,6.38
2022-11-14T08:50:18.776Z,6.46
2022-11-14T08:51:39.424Z,6.54
2022-11-14T08:53:00.325Z,6.78
2022-11-14T08:54:21.480Z,6.82
2022-11-14T08:55:50.975Z,6.85
2022-11-14T08:57:15.421Z,6.63
2022-11-14T08:58:36.090Z,6.71
2022-11-14T08:59:56.863Z,6.87
2022-11-14T09:01:17.704Z,7.10
2022-11-14T09:02:39.404Z,7.11
2022-11-14T09:04:01.282Z,7.03
2022-11-14T09:05:22.405Z,7.33
2022-11-14T09:06:42.982Z,7.69
2022-11-14T09:08:06.016Z,7.69
2022-11-14T09:09:26.819Z,7.44
2022-11-14T09:10:47.602Z,7.71
2022-11-14T09:12:08.120Z,7.99
2022-11-14T09:13:32.096Z,7.46
2022-11-14T09:14:53.001Z,7.31
2022-11-14T09:16:13.764Z,6.97
2022-11-14T09:17:35.298Z,7.04
2022-11-14T09:18:56.077Z,7.10
2022-11-14T09:20:16.666Z,7.09
2022-11-14T09:21:42.708Z,7.27
2022-11-14T09:23:03.800Z,7.14
2022-11-14T09:24:24.620Z,7.20
2022-11-14T09:25:45.056Z,7.40
2022-11-14T09:27:06.280Z,7.37
2022-11-14T09:28:26.737Z,7.43
2022-11-14T09:29:47.524Z,7.49
2022-11-14T09:31:10.814Z,7.00
2022-11-14T09:32:32.005Z,7.04
2022-11-14T09:33:52.487Z,7.18
2022-11-14T09:35:13.174Z,7.26
2022-11-14T09:36:36.739Z,7.33
2022-11-14T09:38:06.072Z,7.54
2022-11-14T09:39:26.616Z,7.70
2022-11-14T09:41:02.189Z,7.70
2022-11-14T09:42:31.627Z,7.87
2022-11-14T09:44:20.262Z,7.63
2022-11-14T09:45:50.264Z,7.47
2022-11-14T09:47:21.142Z,7.51
2022-11-14T09:48:41.741Z,7.60
2022-11-14T09:50:08.091Z,7.92
2022-11-14T09:51:34.191Z,8.15
2022-11-14T09:53:03.233Z,8.04
2022-11-14T09:54:42.284Z,7.98
2022-11-14T09:56:03.641Z,8.40
2022-11-14T09:57:29.094Z,8.62
2022-11-14T09:58:49.576Z,8.84
2022-11-14T10:00:21.057Z,8.62
2022-11-14T10:01:59.811Z,8.44
2022-11-14T10:03:26.624Z,8.60
2022-11-14T10:05:14.482Z,8.64
2022-11-14T10:07:10.030Z,8.54
2022-11-14T10:08:54.769Z,8.52
2022-11-14T10:10:39.973Z,8.68
2022-11-14T10:12:23.986Z,8.62
2022-11-14T10:14:15.694Z,8.40
2022-11-14T10:15:52.179Z,8.53
2022-11-14T10:17:43.638Z,8.62
2022-11-14T10:19:30.774Z,8.66
2022-11-14T10:20:55.744Z,8.86
2022-11-14T10:22:37.995Z,9.10
2022-11-14T10:24:39.766Z,9.28
2022-11-14T10:26:23.716Z,9.44
2022-11-14T10:28:05.423Z,9.47
2022-11-14T10:29:41.504Z,9.53
2022-11-14T10:31:20.445Z,9.61
2022-11-14T10:32:59.294Z,9.61
2022-11-14T10:34:29.819Z,9.80
2022-11-14T10:35:59.311Z,9.83
2022-11-14T10:37:34.580Z,10.09
2022-11-14T10:39:08.513Z,10.17
2022-11-14T10:40:46.935Z,10.41
2022-11-14T10:42:25.384Z,10.33
2022-11-14T10:43:54.816Z,10.03
2022-11-14T10:45:27.265Z,10.31
2022-11-14T10:46:53.949Z,10.30
2022-11-14T10:48:35.740Z,10.16
2022-11-14T10:50:05.022Z,9.79
2022-11-14T10:51:41.421Z,9.83
2022-11-14T10:53:06.531Z,9.80
2022-11-14T10:54:36.875Z,9.86
2022-11-14T10:56:06.143Z,9.85
2022-11-14T10:57:28.880Z,10.13
2022-11-14T10:58:50.505Z,10.00
2022-11-14T11:00:14.104Z,10.06
2022-11-14T11:01:46.716Z,10.00
2022-11-14T11:03:07.655Z,10.01
2022-11-14T11:04:33.988Z,10.01
2022-11-14T11:05:58.129Z,10.24
2022-11-14T11:07:41.367Z,10.12
2022-11-14T11:09:27.554Z,10.28
2022-11-14T11:11:07.077Z,10.52
2022-11-14T11:12:37.288Z,10.77
2022-11-14T11:14:01.087Z,10.79
2022-11-14T11:15:32.814Z,10.81
2022-11-14T11:17:11.947Z,10.94
2022-11-14T11:18:34.711Z,11.03
2022-11-14T11:19:56.088Z,11.09
2022-11-14T11:21:17.879Z,10.96
2022-11-14T11:22:39.112Z,11.00
2022-11-14T11:23:59.928Z,11.06
2022-11-14T11:25:27.742Z,10.94
2022-11-14T11:26:48.033Z,10.87
2022-11-14T11:28:20.914Z,10.88
2022-11-14T11:29:44.872Z,10.94
2022-11-14T11:31:08.188Z,11.03
2022-11-14T11:32:29.426Z,11.05
2022-11-14T11:33:50.097Z,10.98
2022-11-14T11:35:13.955Z,10.92
2022-11-14T11:36:41.582Z,10.94
2022-11-14T11:38:05.317Z,11.10
2022-11-14T11:39:34.563Z,11.29
2022-11-14T11:41:25.949Z,11.50
2022-11-14T11:43:38.518Z,11.60
2022-11-14T11:44:59.109Z,11.43
2022-11-14T11:46:42.620Z,11.66
2022-11-14T11:48:20.052Z,11.47
2022-11-14T11:49:48.663Z,11.51
2022-11-14T11:51:19.155Z,11.55
2022-11-14T11:52:48.953Z,11.43
2022-11-14T11:54:30.175Z,11.51
2022-11-14T11:55:56.911Z,11.53
2022-11-14T11:57:24.583Z,11.47
2022-11-14T11:58:50.897Z,11.47
2022-11-14T12:00:18.355Z,11.63
2022-11-14T12:01:39.038Z,11.65
2022-11-14T12:03:02.087Z,11.51
2022-11-14T12:04:23.566Z,11.52
2022-11-14T12:05:55.324Z,11.34
2022-11-14T12:07:19.900Z,11.37
2022-11-14T12:08:53.499Z,11.45
2022-11-14T12:10:21.898Z,11.69
2022-11-14T12:11:50.356Z,11.59
2022-11-14T12:13:26.152Z,11.70
2022-11-14T12:14:59.468Z,11.76
2022-11-14T12:16:56.872Z,11.91
2022-11-14T12:18:47.829Z,12.04
2022-11-14T12:20:33.682Z,12.17
2022-11-14T12:22:31.136Z,12.20
2022-11-14T12:24:14.262Z,12.22
2022-11-14T12:25:54.134Z,12.15
2022-11-14T12:27:55.204Z,12.07
2022-11-14T12:29:42.452Z,12.06
2022-11-14T12:31:10.967Z,12.08
2022-11-14T12:32:38.416Z,12.04
2022-11-14T12:34:08.234Z,12.05
2022-11-14T12:35:34.698Z,12.13
2022-11-14T12:36:55.616Z,11.98
2022-11-14T12:38:19.552Z,11.91
2022-11-14T12:39:41.228Z,12.03
2022-11-14T12:41:02.291Z,12.17
2022-11-14T12:42:23.027Z,12.19
2022-11-14T12:43:44.325Z,12.16
2022-11-14T12:45:40.565Z,12.24
2022-11-14T12:47:06.784Z,12.21
2022-11-14T12:48:32.130Z,12.21
2022-11-14T12:49:52.825Z,12.21
2022-11-14T12:51:28.363Z,12.22
2022-11-14T12:52:54.876Z,12.36
2022-11-14T12:54:47.518Z,12.43
2022-11-14T12:56:29.279Z,12.49
2022-11-14T12:57:58.422Z,12.47
2022-11-14T12:59:49.856Z,12.44
2022-11-14T13:01:25.516Z,12.44
2022-11-14T13:03:14.311Z,12.47
2022-11-14T13:05:13.997Z,12.66
2022-11-14T13:06:47.341Z,12.75
2022-11-14T13:08:35.898Z,12.73
2022-11-14T13:10:15.626Z,12.70
2022-11-14T13:12:06.213Z,12.68
2022-11-14T13:13:45.969Z,12.72
2022-11-14T13:16:03.433Z,12.70
2022-11-14T13:17:46.190Z,12.60
2022-11-14T13:19:37.575Z,12.61
2022-11-14T13:21:45.904Z,12.60
2022-11-14T13:23:41.511Z,12.66
2022-11-14T13:25:01.958Z,12.67
2022-11-14T13:26:25.693Z,12.75
2022-11-14T13:28:07.076Z,12.78
2022-11-14T13:29:40.183Z,12.75
2022-11-14T13:31:16.062Z,12.87
2022-11-14T13:32:43.309Z,12.87
2022-11-14T13:34:41.661Z,12.79
2022-11-14T13:36:05.469Z,12.70
2022-11-14T13:37:47.144Z,12.78
2022-11-14T13:39:41.972Z,12.82
2022-11-14T13:41:46.519Z,12.78
2022-11-14T13:43:32.733Z,12.81
2022-11-14T13:45:15.374Z,12.78
2022-11-14T13:47:03.283Z,12.72
2022-11-14T13:48:42.499Z,12.69
2022-11-14T13:50:25.040Z,12.65
2022-11-14T13:51:46.514Z,12.67
2022-11-14T13:53:20.222Z,12.62
2022-11-14T13:54:50.880Z,12.53
2022-11-14T13:56:24.372Z,12.50
2022-11-14T13:57:57.371Z,12.53
2022-11-14T13:59:23.498Z,12.46
2022-11-14T14:00:55.178Z,12.49
2022-11-14T14:02:52.615Z,12.48
2022-11-14T14:04:45.388Z,12.38
2022-11-14T14:06:35.873Z,12.40
2022-11-14T14:08:15.627Z,12.52
2022-11-14T14:09:59.788Z,12.50
2022-11-14T14:11:43.343Z,12.41
2022-11-14T14:13:30.422Z,12.34
2022-11-14T14:15:16.343Z,12.37
2022-11-14T14:16:49.935Z,12.39
2022-11-14T14:18:45.081Z,12.41
2022-11-14T14:20:48.204Z,12.38
2022-11-14T14:22:29.730Z,12.33
2022-11-14T14:23:59.819Z,12.33
2022-11-14T14:25:26.072Z,12.30
2022-11-14T14:27:08.114Z,12.32
2022-11-14T14:28:37.695Z,12.30
2022-11-14T14:30:10.714Z,12.15
2022-11-14T14:31:39.083Z,12.10
2022-11-14T14:33:17.875Z,12.23
2022-11-14T14:34:41.715Z,12.25
2022-11-14T14:36:02.153Z,12.21
2022-11-14T14:37:28.850Z,12.28
2022-11-14T14:38:50.072Z,12.29
2022-11-14T14:40:24.270Z,12.20
2022-11-14T14:41:46.226Z,12.18
2022-11-14T14:43:07.495Z,12.13
2022-11-14T14:44:37.499Z,12.12
2022-11-14T14:45:58.346Z,12.12
2022-11-14T14:47:36.695Z,12.09
2022-11-14T14:49:00.313Z,12.02
2022-11-14T14:50:27.494Z,11.97
2022-11-14T14:51:48.515Z,11.91
2022-11-14T14:53:21.130Z,11.93
2022-11-14T14:54:41.744Z,11.89
2022-11-14T14:56:06.341Z,11.87
2022-11-14T14:57:28.633Z,11.90
2022-11-14T14:58:49.474Z,11.77
2022-11-14T15:00:19.658Z,11.76
2022-11-14T15:01:40.648Z,11.71
2022-11-14T15:03:01.430Z,11.71
2022-11-14T15:04:26.374Z,11.68
2022-11-14T15:05:47.180Z,11.61
2022-11-14T15:07:22.478Z,11.61
2022-11-14T15:08:45.927Z,11.60
2022-11-14T15:10:08.342Z,11.52
2022-11-14T15:11:32.533Z,11.54
2022-11-14T15:12:54.117Z,11.52
2022-11-14T15:14:19.657Z,11.48
2022-11-14T15:15:40.695Z,11.45
2022-11-14T15:17:03.532Z,11.45
2022-11-14T15:18:30.493Z,11.42
2022-11-14T15:19:53.489Z,11.36
2022-11-14T15:21:24.154Z,11.32
2022-11-14T15:23:20.822Z,11.32
2022-11-14T15:24:42.171Z,11.24
2022-11-14T15:26:06.076Z,11.28
2022-11-14T15:27:27.077Z,11.22
2022-11-14T15:28:48.317Z,11.11
2022-11-14T15:30:24.724Z,11.09
2022-11-14T15:31:48.949Z,11.00
2022-11-14T15:33:34.017Z,10.85
2022-11-14T15:35:25.538Z,10.96
2022-11-14T15:37:22.675Z,10.86
2022-11-14T15:39:01.102Z,10.86
2022-11-14T15:40:22.248Z,10.81
2022-11-14T15:41:42.738Z,10.70
2022-11-14T15:43:40.950Z,10.61
2022-11-14T15:45:20.280Z,10.61
2022-11-14T15:46:42.974Z,10.58
2022-11-14T15:48:14.096Z,10.58
2022-11-14T15:49:36.121Z,10.63
2022-11-14T15:50:57.363Z,10.62
2022-11-14T15:52:32.128Z,10.56
2022-11-14T15:53:54.499Z,10.52
2022-11-14T15:55:20.129Z,10.56
2022-11-14T15:56:40.953Z,10.54
2022-11-14T15:59:43.728Z,10.49
2022-11-14T16:01:05.552Z,10.51
2022-11-14T16:02:33.515Z,10.55
2022-11-14T16:03:54.613Z,10.52
2022-11-14T16:05:16.048Z,10.48
2022-11-14T16:06:37.086Z,10.39
2022-11-14T16:07:58.201Z,10.38
2022-11-14T16:09:20.164Z,10.33
2022-11-14T16:10:40.833Z,10.31
2022-11-14T16:12:02.035Z,10.33
2022-11-14T16:13:22.725Z,10.30
2022-11-14T16:14:43.716Z,10.32
2022-11-14T16:16:04.610Z,10.27
2022-11-14T16:17:25.496Z,10.14
2022-11-14T16:18:45.887Z,10.15
2022-11-14T16:20:15.997Z,10.18
2022-11-14T16:21:37.401Z,10.14
2022-11-14T16:22:58.242Z,10.15
2022-11-14T16:24:21.460Z,10.20
2022-11-14T16:25:42.293Z,10.15
2022-11-14T16:27:03.978Z,10.08
2022-11-14T16:28:24.603Z,9.98
2022-11-14T16:29:45.592Z,10.04
2022-11-14T16:31:14.072Z,10.01
2022-11-14T16:32:34.725Z,9.97
2022-11-14T16:33:57.304Z,10.00
2022-11-14T16:35:26.111Z,9.93
2022-11-14T16:36:48.533Z,9.93
2022-11-14T16:38:13.147Z,9.95
2022-11-14T16:39:33.926Z,9.95
2022-11-14T16:40:54.806Z,9.92
2022-11-14T16:42:15.450Z,9.87
2022-11-14T16:43:36.085Z,9.93
2022-11-14T16:45:04.130Z,9.91
2022-11-14T16:46:25.105Z,9.95
2022-11-14T16:47:47.166Z,9.92
2022-11-14T16:49:08.248Z,9.82
2022-11-14T16:50:29.029Z,9.81
2022-11-14T16:51:51.204Z,9.82
2022-11-14T16:53:11.874Z,9.80
2022-11-14T16:54:33.464Z,9.84
2022-11-14T16:55:54.870Z,9.87
2022-11-14T16:57:15.665Z,9.85
2022-11-14T16:58:39.811Z,9.76
2022-11-14T17:00:00.761Z,9.77
2022-11-14T17:01:21.856Z,9.85
2022-11-14T17:02:43.261Z,9.73
2022-11-14T17:04:03.896Z,9.75
2022-11-14T17:05:24.552Z,9.72
2022-11-14T17:06:45.235Z,9.79
2022-11-14T17:08:06.655Z,9.74
2022-11-14T17:09:27.638Z,9.71
2022-11-14T17:10:48.744Z,9.67
2022-11-14T17:12:10.338Z,9.70
2022-11-14T17:13:32.108Z,9.65
2022-11-14T17:14:54.499Z,9.67
2022-11-14T17:16:16.246Z,9.65
2022-11-14T17:17:36.900Z,9.74
2022-11-14T17:18:57.493Z,9.89
2022-11-14T17:20:18.214Z,10.03
2022-11-14T17:21:39.846Z,9.97
2022-11-14T17:23:00.399Z,9.89
2022-11-14T17:24:20.743Z,9.86
2022-11-14T17:25:41.257Z,9.75
2022-11-14T17:27:03.000Z,9.66
2022-11-14T17:28:24.027Z,9.58
2022-11-14T17:29:44.634Z,9.45
2022-11-14T17:31:08.581Z,9.42
2022-11-14T17:32:30.191Z,9.29
2022-11-14T17:33:55.395Z,9.30
2022-11-14T17:35:16.162Z,9.32
2022-11-14T17:36:36.782Z,9.44
2022-11-14T17:38:00.252Z,9.49
2022-11-14T17:39:21.537Z,9.39
2022-11-14T17:40:42.169Z,9.15
2022-11-14T17:42:03.032Z,9.01
2022-11-14T17:43:24.334Z,8.96
2022-11-14T17:44:45.157Z,8.84
2022-11-14T17:46:11.150Z,8.80
2022-11-14T17:47:36.625Z,8.82
2022-11-14T17:48:59.109Z,8.89
2022-11-14T17:50:20.592Z,8.89
2022-11-14T17:51:41.677Z,9.01
2022-11-14T17:53:02.295Z,9.03
2022-11-14T17:54:23.247Z,9.00
2022-11-14T17:55:44.818Z,9.11
2022-11-14T17:57:05.541Z,9.16
2022-11-14T17:58:29.091Z,9.15
2022-11-14T17:59:50.165Z,8.94
2022-11-14T18:01:15.931Z,8.93
2022-11-14T18:02:36.588Z,8.78
2022-11-14T18:04:00.514Z,8.77
2022-11-14T18:05:25.504Z,8.67
2022-11-14T18:06:46.013Z,8.64
2022-11-14T18:08:06.845Z,8.61
2022-11-14T18:09:29.472Z,8.51
2022-11-14T18:10:50.913Z,8.43
2022-11-14T18:12:11.359Z,8.40
2022-11-14T18:13:32.145Z,8.52
2022-11-14T18:14:52.632Z,8.48
2022-11-14T18:16:17.095Z,8.41
2022-11-14T18:17:38.530Z,8.42
2022-11-14T18:18:59.051Z,8.47
2022-11-14T18:20:19.665Z,8.38
2022-11-14T18:21:43.101Z,8.36
2022-11-14T18:23:04.165Z,8.32
2022-11-14T18:24:24.903Z,8.22
2022-11-14T18:25:45.497Z,8.22
2022-11-14T18:27:06.624Z,8.16
2022-11-14T18:28:27.464Z,8.21
2022-11-14T18:29:48.656Z,8.36
2022-11-14T18:31:11.117Z,8.28
2022-11-14T18:32:32.115Z,8.27
2022-11-14T18:33:53.080Z,8.23
2022-11-14T18:35:13.660Z,8.24
2022-11-14T18:36:34.552Z,8.30
2022-11-14T18:37:55.242Z,8.24
2022-11-14T18:39:16.436Z,8.22
2022-11-14T18:40:37.131Z,8.16
2022-11-14T18:42:00.476Z,8.14
2022-11-14T18:43:21.097Z,8.16
2022-11-14T18:44:42.394Z,8.29
2022-11-14T18:46:10.764Z,8.50
2022-11-14T18:47:31.900Z,8.54
2022-11-14T18:48:57.087Z,8.50
2022-11-14T18:50:18.327Z,8.40